HTIR

Iringa Airport

Nduli, Tanzania
METAR HTIR 161000Z 09009KT 9999 BKN024 28/14 Q1019
Observed Flight Rules
Dec-16 @ 10:00 UTC (an hour ago) Marginal Visual Flight Rules
Wind Visibility Clouds
90° at 9 knots 10,000+ meters
  • Broken at 2,400' AGL
Temperatures Readings
Current 28°C / 82°F
Dewpoint 14°C / 57°F
Humidity 42%
Altimeter 30.09" Hg
Pressure 1019 hPa
Elevation 1428
METAR HTIR 161000Z 09009KT 9999 BKN024 28/14 Q1019
Observed Flight Rules
Dec-16 @ 10:00 UTC
(an hour ago)
MVFR
Wind Visibility
90° at 9 knots 10,000+ meters
Clouds
  • Broken at 2,400' AGL
Temperature Dewpoint
28°C / 82°F 14°C / 57°F
Humidity Altimeter Pressure
42% 30.09" Hg 1019 hPa